createdAt,value
2022-09-23T00:02:09.365Z,101001.59
2022-09-23T00:04:37.115Z,100991.75
2022-09-23T00:07:03.474Z,100999.56
2022-09-23T00:09:29.834Z,100988.56
2022-09-23T00:11:56.163Z,100993.25
2022-09-23T00:14:22.526Z,100995.66
2022-09-23T00:16:48.943Z,100992.28
2022-09-23T00:19:15.326Z,101004.09
2022-09-23T00:21:43.075Z,100992.84
2022-09-23T00:24:09.489Z,100993.28
2022-09-23T00:26:35.889Z,100992.50
2022-09-23T00:29:02.270Z,100985.09
2022-09-23T00:31:28.699Z,100993.41
2022-09-23T00:33:55.420Z,100985.09
2022-09-23T00:36:21.883Z,100983.25
2022-09-23T00:38:49.953Z,100986.19
2022-09-23T00:41:16.348Z,100984.56
2022-09-23T00:43:44.021Z,100982.72
2022-09-23T00:46:13.522Z,100976.41
2022-09-23T00:48:41.449Z,100976.75
2022-09-23T00:51:09.073Z,100974.88
2022-09-23T00:53:35.731Z,100971.56
2022-09-23T00:56:05.841Z,100967.41
2022-09-23T00:58:33.966Z,100971.47
2022-09-23T01:01:01.237Z,100966.00
2022-09-23T01:03:27.685Z,100959.50
2022-09-23T01:05:54.197Z,100966.84
2022-09-23T01:08:21.062Z,100972.31
2022-09-23T01:10:51.976Z,100968.53
2022-09-23T01:13:24.758Z,100967.84
2022-09-23T01:15:53.762Z,100967.03
2022-09-23T01:18:26.940Z,100960.63
2022-09-23T01:20:58.014Z,100953.03
2022-09-23T01:23:42.380Z,100959.88
2022-09-23T01:26:19.878Z,100962.38
2022-09-23T01:28:57.191Z,100965.13
2022-09-23T01:31:26.929Z,100965.25
2022-09-23T01:33:56.867Z,100963.53
2022-09-23T01:36:24.515Z,100964.38
2022-09-23T01:38:54.907Z,100969.31
2022-09-23T01:41:28.129Z,100962.56
2022-09-23T01:43:59.387Z,100966.03
2022-09-23T01:46:29.988Z,100969.28
2022-09-23T01:49:00.938Z,100967.41
2022-09-23T01:51:30.767Z,100965.75
2022-09-23T01:54:00.505Z,100962.19
2022-09-23T01:56:28.767Z,100959.31
2022-09-23T01:58:58.639Z,100961.59
2022-09-23T02:01:29.844Z,100956.03
2022-09-23T02:04:00.979Z,100968.44
2022-09-23T02:06:29.910Z,100965.19
2022-09-23T02:08:58.275Z,100971.34
2022-09-23T02:11:24.762Z,100965.34
2022-09-23T02:13:52.402Z,100966.16
2022-09-23T02:16:22.578Z,100969.38
2022-09-23T02:18:53.194Z,100968.56
2022-09-23T02:21:21.696Z,100966.41
2022-09-23T02:23:49.926Z,100967.63
2022-09-23T02:26:18.972Z,100968.25
2022-09-23T02:28:50.429Z,100965.88
2022-09-23T02:31:21.481Z,100957.84
2022-09-23T02:33:54.467Z,100958.16
2022-09-23T02:36:25.661Z,100964.31
2022-09-23T02:38:55.232Z,100960.75
2022-09-23T02:41:25.673Z,100964.47
2022-09-23T02:43:53.858Z,100958.25
2022-09-23T02:46:21.014Z,100957.56
2022-09-23T02:48:50.228Z,100952.81
2022-09-23T02:51:16.652Z,100948.84
2022-09-23T02:53:44.792Z,100949.53
2022-09-23T02:56:14.074Z,100948.16
2022-09-23T02:58:40.462Z,100948.16
2022-09-23T03:01:11.650Z,100946.31
2022-09-23T03:03:40.803Z,100945.00
2022-09-23T03:06:09.995Z,100946.56
2022-09-23T03:08:41.238Z,100943.63
2022-09-23T03:11:10.796Z,100932.19
2022-09-23T03:13:42.663Z,100940.94
2022-09-23T03:16:14.758Z,100932.13
2022-09-23T03:18:44.599Z,100938.44
2022-09-23T03:21:13.893Z,100934.66
2022-09-23T03:23:41.549Z,100932.66
2022-09-23T03:26:12.259Z,100928.91
2022-09-23T03:28:40.621Z,100924.84
2022-09-23T03:31:07.101Z,100922.41
2022-09-23T03:33:34.411Z,100927.31
2022-09-23T03:36:04.307Z,100920.25
2022-09-23T03:38:35.026Z,100913.22
2022-09-23T03:41:02.843Z,100909.53
2022-09-23T03:43:31.282Z,100920.09
2022-09-23T03:45:58.854Z,100926.09
2022-09-23T03:48:25.501Z,100920.53
2022-09-23T03:50:51.925Z,100927.97
2022-09-23T03:53:18.328Z,100926.00
2022-09-23T03:55:44.716Z,100925.03
2022-09-23T03:58:11.115Z,100924.50
2022-09-23T04:00:38.879Z,100919.66
2022-09-23T04:03:09.514Z,100921.06
2022-09-23T04:05:37.859Z,100922.59
2022-09-23T04:08:04.347Z,100922.19
2022-09-23T04:10:30.767Z,100931.09
2022-09-23T04:12:57.141Z,100921.22
2022-09-23T04:15:23.571Z,100921.25
2022-09-23T04:17:51.289Z,100930.84
2022-09-23T04:20:17.672Z,100930.19
2022-09-23T04:22:44.021Z,100935.28
2022-09-23T04:25:10.396Z,100940.25
2022-09-23T04:27:37.970Z,100933.84
2022-09-23T04:30:05.155Z,100937.38
2022-09-23T04:32:31.535Z,100941.31
2022-09-23T04:34:59.729Z,100939.59
2022-09-23T04:37:26.815Z,100940.00
2022-09-23T04:39:53.220Z,100944.44
2022-09-23T04:42:19.570Z,100944.44
2022-09-23T04:44:45.969Z,100942.72
2022-09-23T04:47:15.480Z,100951.53
2022-09-23T04:49:41.821Z,100943.69
2022-09-23T04:52:09.546Z,100944.81
2022-09-23T04:54:35.896Z,100938.84
2022-09-23T04:57:02.275Z,100945.25
2022-09-23T04:59:28.715Z,100947.00
2022-09-23T05:01:55.167Z,100942.47
2022-09-23T05:04:21.617Z,100943.59
2022-09-23T05:06:48.000Z,100938.38
2022-09-23T05:09:16.741Z,100951.00
2022-09-23T05:11:43.411Z,100942.69
2022-09-23T05:14:09.877Z,100944.34
2022-09-23T05:16:36.285Z,100946.91
2022-09-23T05:19:02.783Z,100948.97
2022-09-23T05:21:29.256Z,100945.28
2022-09-23T05:23:56.256Z,100956.22
2022-09-23T05:26:24.423Z,100956.22
2022-09-23T05:28:50.834Z,100950.31
2022-09-23T05:31:20.279Z,100953.06
2022-09-23T05:33:48.297Z,100956.50
2022-09-23T05:36:15.165Z,100958.19
2022-09-23T05:38:41.553Z,100956.03
2022-09-23T05:41:08.969Z,100959.38
2022-09-23T05:43:36.907Z,100958.56
2022-09-23T05:46:07.969Z,100954.75
2022-09-23T05:48:35.285Z,100950.38
2022-09-23T05:51:02.094Z,100950.69
2022-09-23T05:53:29.106Z,100943.63
2022-09-23T05:55:55.511Z,100937.19
2022-09-23T05:58:22.457Z,100941.88
2022-09-23T06:00:50.687Z,100940.19
2022-09-23T06:03:17.805Z,100935.50
2022-09-23T06:05:44.195Z,100933.41
2022-09-23T06:08:11.213Z,100938.81
2022-09-23T06:10:38.347Z,100941.19
2022-09-23T06:13:04.837Z,100943.25
2022-09-23T06:15:31.352Z,100940.78
2022-09-23T06:17:59.277Z,100934.22
2022-09-23T06:20:25.743Z,100929.78
2022-09-23T06:22:55.242Z,100926.38
2022-09-23T06:25:22.141Z,100914.66
2022-09-23T06:27:52.362Z,100924.63
2022-09-23T06:30:18.998Z,100932.81
2022-09-23T06:32:47.769Z,100934.00
2022-09-23T06:35:25.015Z,100941.81
2022-09-23T06:37:53.604Z,100942.53
2022-09-23T06:40:20.160Z,100936.00
2022-09-23T06:42:51.487Z,100938.25
2022-09-23T06:45:18.761Z,100939.03
2022-09-23T06:47:45.201Z,100938.06
2022-09-23T06:50:11.887Z,100939.16
2022-09-23T06:52:39.648Z,100939.19
2022-09-23T06:55:06.785Z,100937.59
2022-09-23T06:57:33.306Z,100944.31
2022-09-23T06:59:59.733Z,100949.53
2022-09-23T07:02:26.285Z,100950.00
2022-09-23T07:04:52.787Z,100942.03
2022-09-23T07:07:19.153Z,100943.97
2022-09-23T07:09:46.950Z,100942.19
2022-09-23T07:12:13.430Z,100940.97
2022-09-23T07:14:39.779Z,100939.66
2022-09-23T07:17:06.184Z,100946.75
2022-09-23T07:19:32.531Z,100946.47
2022-09-23T07:21:58.866Z,100944.00
2022-09-23T07:24:25.269Z,100937.25
2022-09-23T07:26:53.001Z,100944.88
2022-09-23T07:29:19.642Z,100937.50
2022-09-23T07:31:46.102Z,100945.09
2022-09-23T07:34:12.754Z,100948.50
2022-09-23T07:36:39.426Z,100952.38
2022-09-23T07:39:06.007Z,100950.66
2022-09-23T07:41:33.111Z,100945.00
2022-09-23T07:44:01.182Z,100942.06
2022-09-23T07:46:28.358Z,100937.84
2022-09-23T07:48:54.774Z,100942.13
2022-09-23T07:51:24.934Z,100934.59
2022-09-23T07:53:52.174Z,100949.56
2022-09-23T07:56:19.030Z,100954.41
2022-09-23T07:58:45.772Z,100949.50
2022-09-23T08:01:13.655Z,100950.69
2022-09-23T08:03:40.110Z,100948.38
2022-09-23T08:06:07.437Z,100954.13
2022-09-23T08:08:34.151Z,100949.56
2022-09-23T08:11:00.958Z,100955.78
2022-09-23T08:13:27.349Z,100956.16
2022-09-23T08:15:55.580Z,100951.97
2022-09-23T08:18:23.532Z,100951.34
2022-09-23T08:20:49.877Z,100948.53
2022-09-23T08:23:16.585Z,100949.53
2022-09-23T08:25:46.043Z,100945.88
2022-09-23T08:28:13.577Z,100938.47
2022-09-23T08:30:40.078Z,100938.88
2022-09-23T08:33:06.496Z,100926.00
2022-09-23T08:35:34.236Z,100923.38
2022-09-23T08:38:00.644Z,100918.00
2022-09-23T08:40:27.085Z,100910.69
2022-09-23T08:42:53.610Z,100917.59
2022-09-23T08:45:21.966Z,100917.84
2022-09-23T08:47:52.316Z,100912.13
2022-09-23T08:50:19.596Z,100916.28
2022-09-23T08:52:49.676Z,100905.22
2022-09-23T08:55:16.278Z,100912.19
2022-09-23T08:58:02.291Z,100910.34
2022-09-23T09:00:40.458Z,100909.91
2022-09-23T09:03:18.262Z,100908.53
2022-09-23T09:05:53.756Z,100901.31
2022-09-23T09:08:23.431Z,100901.31
2022-09-23T09:10:53.746Z,100902.75
2022-09-23T09:13:25.246Z,100895.84
2022-09-23T09:15:58.329Z,100893.47
2022-09-23T09:18:25.662Z,100890.50
2022-09-23T09:20:57.537Z,100890.66
2022-09-23T09:23:30.683Z,100889.00
2022-09-23T09:25:58.852Z,100884.97
2022-09-23T09:28:26.889Z,100886.72
2022-09-23T09:30:55.999Z,100889.53
2022-09-23T09:33:25.628Z,100882.75
2022-09-23T09:36:02.358Z,100889.66
2022-09-23T09:38:30.089Z,100884.75
2022-09-23T09:41:01.559Z,100878.88
2022-09-23T09:43:27.951Z,100874.19
2022-09-23T09:46:00.775Z,100877.69
2022-09-23T09:48:30.515Z,100878.06
2022-09-23T09:50:56.882Z,100876.47
2022-09-23T09:53:24.147Z,100867.00
2022-09-23T09:56:04.593Z,100875.97
2022-09-23T09:58:34.331Z,100875.81
2022-09-23T10:01:00.862Z,100870.31
2022-09-23T10:03:37.274Z,100862.69
2022-09-23T10:06:13.442Z,100853.16
2022-09-23T10:08:39.828Z,100852.53
2022-09-23T10:11:12.740Z,100850.16
2022-09-23T10:13:39.106Z,100851.53
2022-09-23T10:16:05.546Z,100852.91
2022-09-23T10:18:34.129Z,100856.38
2022-09-23T10:21:02.328Z,100855.38
2022-09-23T10:23:29.092Z,100855.06
2022-09-23T10:25:56.686Z,100847.25
2022-09-23T10:28:39.808Z,100840.13
2022-09-23T10:31:07.422Z,100844.66
2022-09-23T10:33:34.062Z,100842.88
2022-09-23T10:36:00.543Z,100840.00
2022-09-23T10:38:26.936Z,100838.50
2022-09-23T10:40:54.283Z,100835.19
2022-09-23T10:43:27.188Z,100831.09
2022-09-23T10:45:58.252Z,100829.38
2022-09-23T10:48:28.273Z,100832.97
2022-09-23T10:50:56.144Z,100829.59
2022-09-23T10:53:31.292Z,100829.59
2022-09-23T10:56:04.712Z,100819.91
2022-09-23T10:58:46.325Z,100814.66
2022-09-23T11:01:25.708Z,100811.94
2022-09-23T11:04:08.131Z,100811.19
2022-09-23T11:06:41.591Z,100802.22
2022-09-23T11:09:13.653Z,100804.84
2022-09-23T11:11:45.492Z,100794.75
2022-09-23T11:14:23.117Z,100794.16
2022-09-23T11:17:03.803Z,100792.81
2022-09-23T11:19:45.460Z,100791.16
2022-09-23T11:22:17.319Z,100787.53
2022-09-23T11:25:04.915Z,100776.28
2022-09-23T11:27:38.654Z,100771.34
2022-09-23T11:30:10.598Z,100765.81
2022-09-23T11:32:46.581Z,100759.47
2022-09-23T11:35:16.417Z,100752.56
2022-09-23T11:37:45.682Z,100752.19
2022-09-23T11:40:15.417Z,100744.16
2022-09-23T11:42:47.191Z,100749.00
2022-09-23T11:45:16.367Z,100746.09
2022-09-23T11:47:47.637Z,100744.00
2022-09-23T11:50:23.325Z,100741.63
2022-09-23T11:52:52.860Z,100731.63
2022-09-23T11:55:27.120Z,100736.47
2022-09-23T11:57:56.845Z,100731.59
2022-09-23T12:00:36.579Z,100738.09
2022-09-23T12:03:08.647Z,100723.91
2022-09-23T12:05:37.901Z,100723.47
2022-09-23T12:08:14.021Z,100722.38
2022-09-23T12:10:44.721Z,100718.25
2022-09-23T12:13:15.773Z,100718.91
2022-09-23T12:15:51.778Z,100717.81
2022-09-23T12:18:36.182Z,100712.53
2022-09-23T12:24:28.397Z,100709.25
2022-09-23T12:26:56.943Z,100701.09
2022-09-23T12:29:26.727Z,100697.84
2022-09-23T12:31:53.400Z,100693.00
2022-09-23T12:34:22.708Z,100692.88
2022-09-23T12:37:04.487Z,100695.31
2022-09-23T12:39:38.529Z,100689.06
2022-09-23T12:42:14.920Z,100690.34
2022-09-23T12:44:44.294Z,100691.25
2022-09-23T12:47:46.699Z,100690.84
2022-09-23T12:50:32.963Z,100678.28
2022-09-23T12:53:24.679Z,100680.75
2022-09-23T12:55:51.530Z,100670.63
2022-09-23T12:58:37.998Z,100667.75
2022-09-23T13:01:08.033Z,100665.56
2022-09-23T13:03:34.550Z,100664.50
2022-09-23T13:06:01.487Z,100661.50
2022-09-23T13:08:29.595Z,100663.78
2022-09-23T13:10:58.154Z,100652.34
2022-09-23T13:13:26.713Z,100652.41
2022-09-23T13:15:54.281Z,100647.09
2022-09-23T13:18:24.371Z,100650.91
2022-09-23T13:20:52.114Z,100641.88
2022-09-23T13:23:22.867Z,100645.44
2022-09-23T13:25:52.763Z,100645.78
2022-09-23T13:28:27.743Z,100637.72
2022-09-23T13:30:54.721Z,100631.63
2022-09-23T13:33:25.652Z,100634.56
2022-09-23T13:35:55.809Z,100622.28
2022-09-23T13:38:23.344Z,100618.63
2022-09-23T13:40:51.958Z,100625.28
2022-09-23T13:43:22.237Z,100620.59
2022-09-23T13:45:52.515Z,100613.16
2022-09-23T13:48:23.862Z,100610.97
2022-09-23T13:50:51.049Z,100609.53
2022-09-23T13:53:21.728Z,100604.13
2022-09-23T13:55:58.663Z,100600.81
2022-09-23T13:58:28.692Z,100605.91
2022-09-23T14:00:55.139Z,100604.59
2022-09-23T14:03:23.675Z,100596.94
2022-09-23T14:05:51.113Z,100592.63
2022-09-23T14:08:17.690Z,100604.59
2022-09-23T14:10:44.726Z,100595.25
2022-09-23T14:13:14.414Z,100592.75
2022-09-23T14:15:42.304Z,100593.94
2022-09-23T14:18:08.875Z,100585.69
2022-09-23T14:20:45.104Z,100588.53
2022-09-23T14:23:12.351Z,100581.59
2022-09-23T14:25:38.969Z,100575.81
2022-09-23T14:28:05.435Z,100567.09
2022-09-23T14:30:31.946Z,100564.06
2022-09-23T14:32:59.746Z,100573.56
2022-09-23T14:35:27.568Z,100571.25
2022-09-23T14:37:55.666Z,100569.31
2022-09-23T14:40:24.509Z,100573.06
2022-09-23T14:42:52.215Z,100571.19
2022-09-23T14:45:19.817Z,100563.31
2022-09-23T14:47:48.396Z,100558.97
2022-09-23T14:50:18.326Z,100561.72
2022-09-23T14:52:48.183Z,100558.44
2022-09-23T14:55:15.410Z,100556.13
2022-09-23T14:57:42.243Z,100555.94
2022-09-23T15:00:14.118Z,100550.13
2022-09-23T15:02:43.071Z,100544.06
2022-09-23T15:05:18.596Z,100542.84
2022-09-23T15:07:48.240Z,100540.16
2022-09-23T15:10:17.602Z,100530.81
2022-09-23T15:12:44.891Z,100544.75
2022-09-23T15:15:12.494Z,100539.25
2022-09-23T15:17:39.050Z,100535.22
2022-09-23T15:20:07.251Z,100532.25
2022-09-23T15:22:43.505Z,100524.41
2022-09-23T15:25:14.613Z,100525.81
2022-09-23T15:27:40.986Z,100532.53
2022-09-23T15:30:15.433Z,100526.53
2022-09-23T15:35:08.891Z,100520.16
2022-09-23T15:37:41.002Z,100483.06
2022-09-23T15:40:24.855Z,100489.34
2022-09-23T15:43:15.559Z,100501.28
2022-09-23T15:46:02.049Z,100520.00
2022-09-23T15:48:37.665Z,100506.06
2022-09-23T15:51:13.009Z,100496.22
2022-09-23T15:53:49.834Z,100512.06
2022-09-23T15:56:20.013Z,100508.25
2022-09-23T15:58:48.822Z,100485.34
2022-09-23T16:01:24.845Z,100454.25
2022-09-23T16:03:57.130Z,100501.00
2022-09-23T16:06:31.024Z,100466.25
2022-09-23T16:09:07.538Z,100477.81
2022-09-23T16:11:43.017Z,100510.16
2022-09-23T16:14:13.370Z,100501.03
2022-09-23T16:16:39.959Z,100493.44
2022-09-23T16:19:06.725Z,100506.78
2022-09-23T16:21:35.673Z,100486.97
2022-09-23T16:24:03.088Z,100508.03
2022-09-23T16:26:32.626Z,100494.28
2022-09-23T16:29:00.371Z,100495.66
2022-09-23T16:31:29.075Z,100499.97
2022-09-23T16:33:55.842Z,100509.50
2022-09-23T16:36:24.844Z,100493.63
2022-09-23T16:38:53.674Z,100503.94
2022-09-23T16:41:20.851Z,100511.03
2022-09-23T16:43:47.521Z,100513.97
2022-09-23T16:46:17.545Z,100524.56
2022-09-23T16:48:49.743Z,100512.22
2022-09-23T16:51:21.192Z,100515.47
2022-09-23T16:53:48.810Z,100501.25
2022-09-23T16:56:18.444Z,100513.91
2022-09-23T16:58:45.520Z,100520.41
2022-09-23T17:01:15.153Z,100511.38
2022-09-23T17:03:41.824Z,100518.09
2022-09-23T17:06:10.466Z,100525.63
2022-09-23T17:08:37.223Z,100521.03
2022-09-23T17:11:04.089Z,100538.69
2022-09-23T17:13:32.132Z,100520.16
2022-09-23T17:15:59.672Z,100507.00
2022-09-23T17:18:26.946Z,100530.81
2022-09-23T17:20:58.241Z,100535.63
2022-09-23T17:23:25.091Z,100524.38
2022-09-23T17:25:51.900Z,100524.19
2022-09-23T17:28:18.702Z,100533.44
2022-09-23T17:30:46.768Z,100540.00
2022-09-23T17:33:13.774Z,100547.06
2022-09-23T17:35:40.783Z,100532.28
2022-09-23T17:38:07.527Z,100537.50
2022-09-23T17:40:34.323Z,100550.50
2022-09-23T17:43:01.007Z,100559.34
2022-09-23T17:45:28.184Z,100569.59
2022-09-23T17:47:56.459Z,100566.03
2022-09-23T17:50:23.128Z,100564.50
2022-09-23T17:52:50.547Z,100561.50
2022-09-23T17:55:17.138Z,100566.38
2022-09-23T17:57:43.722Z,100558.56
2022-09-23T18:00:11.652Z,100566.53
2022-09-23T18:02:38.365Z,100554.97
2022-09-23T18:21:25.345Z,100574.59
2022-09-23T18:23:52.220Z,100559.75
2022-09-23T18:26:22.190Z,100577.78
2022-09-23T18:28:49.240Z,100591.00
2022-09-23T18:31:16.388Z,100610.13
2022-09-23T18:33:43.116Z,100605.75
2022-09-23T18:36:10.129Z,100604.47
2022-09-23T18:38:38.063Z,100615.69
2022-09-23T18:41:04.903Z,100622.81
2022-09-23T18:43:37.510Z,100608.94
2022-09-23T18:46:09.385Z,100620.16
2022-09-23T18:48:35.980Z,100621.50
2022-09-23T18:51:02.518Z,100617.03
2022-09-23T18:53:29.094Z,100609.78
2022-09-23T18:55:57.242Z,100599.53
2022-09-23T18:58:24.030Z,100627.31
2022-09-23T19:00:51.277Z,100593.13
2022-09-23T19:03:18.756Z,100604.38
2022-09-23T19:05:45.410Z,100611.00
2022-09-23T19:08:11.983Z,100604.34
2022-09-23T19:10:38.535Z,100598.00
2022-09-23T19:13:06.418Z,100602.91
2022-09-23T19:15:33.060Z,100601.97
2022-09-23T19:17:59.614Z,100608.00
2022-09-23T19:20:26.425Z,100604.84
2022-09-23T19:22:53.025Z,100603.75
2022-09-23T19:25:19.658Z,100606.91
2022-09-23T19:27:46.323Z,100608.88
2022-09-23T19:30:14.350Z,100612.22
2022-09-23T19:32:44.286Z,100596.66
2022-09-23T19:35:10.999Z,100611.69
2022-09-23T19:37:37.538Z,100602.22
2022-09-23T19:40:04.917Z,100609.97
2022-09-23T19:42:31.536Z,100607.31
2022-09-23T19:44:58.091Z,100612.94
2022-09-23T19:47:26.055Z,100611.97
2022-09-23T19:49:52.642Z,100609.38
2022-09-23T19:52:19.239Z,100604.31
2022-09-23T19:54:47.590Z,100608.28
2022-09-23T19:57:14.152Z,100621.41
2022-09-23T19:59:40.722Z,100620.34
2022-09-23T20:02:09.774Z,100627.22
2022-09-23T20:04:44.349Z,100625.00
2022-09-23T20:07:13.637Z,100625.88
2022-09-23T20:09:41.246Z,100598.44
2022-09-23T20:12:09.827Z,100615.38
2022-09-23T20:14:40.186Z,100608.50
2022-09-23T20:17:12.422Z,100620.41
2022-09-23T20:19:42.304Z,100613.84
2022-09-23T20:22:09.522Z,100604.94
2022-09-23T20:24:36.598Z,100601.66
2022-09-23T20:27:03.290Z,100595.94
2022-09-23T20:29:29.860Z,100599.97
2022-09-23T20:31:56.479Z,100605.69
2022-09-23T20:34:23.115Z,100606.75
2022-09-23T20:36:51.052Z,100618.91
2022-09-23T20:39:17.621Z,100624.50
2022-09-23T20:41:44.203Z,100615.84
2022-09-23T20:44:11.329Z,100639.25
2022-09-23T20:46:38.193Z,100636.78
2022-09-23T20:49:05.109Z,100635.56
2022-09-23T20:51:31.687Z,100634.31
2022-09-23T20:54:00.010Z,100638.25
2022-09-23T20:56:26.701Z,100639.16
2022-09-23T20:58:53.777Z,100629.56
2022-09-23T21:01:21.844Z,100628.50
2022-09-23T21:03:49.455Z,100637.78
2022-09-23T21:06:17.513Z,100623.72
2022-09-23T21:08:44.251Z,100609.25
2022-09-23T21:11:14.171Z,100620.41
2022-09-23T21:13:45.584Z,100612.06
2022-09-23T21:16:12.412Z,100600.84
2022-09-23T21:18:39.291Z,100615.38
2022-09-23T21:21:06.634Z,100614.97
2022-09-23T21:23:35.795Z,100628.75
2022-09-23T21:26:03.387Z,100629.28
2022-09-23T21:28:31.854Z,100620.25
2022-09-23T21:30:59.721Z,100629.63
2022-09-23T21:33:26.480Z,100622.44
2022-09-23T21:35:57.078Z,100619.44
2022-09-23T21:38:24.152Z,100626.41
2022-09-23T21:40:58.337Z,100629.81
2022-09-23T21:43:25.704Z,100624.78
2022-09-23T21:45:57.688Z,100627.06
2022-09-23T21:48:24.425Z,100616.00
2022-09-23T21:50:54.756Z,100614.00
2022-09-23T21:53:21.335Z,100608.94
2022-09-23T21:55:47.890Z,100603.66
2022-09-23T21:58:14.496Z,100601.59
2022-09-23T22:00:41.119Z,100601.03
2022-09-23T22:03:09.103Z,100602.31
2022-09-23T22:05:35.673Z,100592.19
2022-09-23T22:08:02.384Z,100609.16
2022-09-23T22:10:28.943Z,100608.38
2022-09-23T22:12:55.716Z,100606.88
2022-09-23T22:15:22.314Z,100613.19
2022-09-23T22:17:48.916Z,100613.38
2022-09-23T22:20:16.823Z,100614.59
2022-09-23T22:22:43.420Z,100613.53
2022-09-23T22:25:10.103Z,100625.56
2022-09-23T22:27:36.684Z,100621.72
2022-09-23T22:30:03.457Z,100620.59
2022-09-23T22:32:30.002Z,100618.16
2022-09-23T22:34:56.809Z,100609.34
2022-09-23T22:37:27.628Z,100613.69
2022-09-23T22:39:54.345Z,100612.19
2022-09-23T22:42:21.314Z,100607.81
2022-09-23T22:44:48.065Z,100618.16
2022-09-23T22:47:14.977Z,100608.53
2022-09-23T22:49:41.556Z,100614.84
2022-09-23T22:52:08.170Z,100608.56
2022-09-23T22:54:36.126Z,100611.50
2022-09-23T22:57:04.049Z,100616.09
2022-09-23T22:59:30.679Z,100615.53
2022-09-23T23:01:59.420Z,100614.44
2022-09-23T23:04:26.064Z,100605.00
2022-09-23T23:06:52.635Z,100614.88
2022-09-23T23:09:19.509Z,100616.31
2022-09-23T23:11:47.473Z,100615.31
2022-09-23T23:14:17.342Z,100620.50
2022-09-23T23:16:44.345Z,100617.75
2022-09-23T23:19:13.057Z,100612.31
2022-09-23T23:21:40.767Z,100592.06
2022-09-23T23:24:07.314Z,100608.81
2022-09-23T23:26:34.387Z,100604.03
2022-09-23T23:29:02.344Z,100602.78
2022-09-23T23:31:29.384Z,100600.75
2022-09-23T23:33:56.041Z,100600.81
2022-09-23T23:36:23.685Z,100606.00
2022-09-23T23:38:51.271Z,100587.88
2022-09-23T23:41:19.620Z,100600.78
2022-09-23T23:43:47.085Z,100598.59
2022-09-23T23:46:15.658Z,100599.72
2022-09-23T23:48:42.616Z,100596.53
2022-09-23T23:51:11.101Z,100596.16
2022-09-23T23:53:39.165Z,100595.34
2022-09-23T23:56:07.910Z,100599.72
2022-09-23T23:58:35.123Z,100598.66
